Aviation Discussion


.AVIATION /13Z THURSDAY THROUGH MONDAY/...

HIGH PRESSURE WILL PROVIDE VFR CONDITIONS TODAY AND TONIGHT.
SCATTERED CUMULUS AROUND 4-5KFT WILL DEVELOP THIS AFTERNOON. DAYTIME
WINDS WILL BE FROM THE NW AT LESS THAN 10KT BEFORE DECOUPLING THIS
EVENING.

FLGT RESTRICTIONS XPCTD THIS WKND AS UPR LVL ENERGY PASSES S OF
THE AREA...INITIATING LOPRES WHICH PASSES NE. MVFR SHUD GNLY
PREVAIL... BUT WUDNT RULE OUT LCL IFR FRI NGT-SAT. IN ADDITION...
WL HV WINDY CONDS /NW 20-30 KT/ SAT AFTN INTO SUN WHICH CUD AFFECT
OPS.

 

Terminal Aviation Forecasts

TAFBWI (View previous versions )
KBWI 301725Z 3018/3124 35005KT P6SM SCT045
     FM310400 VRB03KT P6SM FEW150
     FM312000 VRB03KT P6SM BKN100=

TAFCHO (View previous versions )
KCHO 301725Z 3018/3118 35008KT P6SM OVC050
     FM311400 VRB03KT P6SM BKN035=

TAFDCA (View previous versions )
KDCA 301725Z 3018/3118 33009KT P6SM SCT050
     FM310300 VRB03KT P6SM FEW040
     FM310800 VRB03KT P6SM FEW200
     FM311400 VRB03KT P6SM BKN060=

TAFIAD (View previous versions )
KIAD 301725Z 3018/3124 30007KT P6SM SCT045
     FM310600 VRB03KT P6SM FEW150
     FM310900 VRB03KT P6SM SCT050
     FM311300 VRB03KT P6SM BKN040=

TAFMRB (View previous versions )
KMRB 301725Z 3018/3118 34006KT P6SM SCT040 BKN050 OVC060
     FM302300 VRB03KT P6SM SCT035
     FM311100 VRB03KT P6SM BKN035=

TAFMTN (View previous versions )
KMTN 301725Z 3018/3118 27012KT P6SM SCT040 SCT060
     FM302300 33004KT P6SM FEW040
     FM310300 VRB03KT P6SM FEW150=


Meteorological Impact Statement

ZDC MIS 01 VALID 301115-301900
...FOR ATC PLANNING PURPOSES ONLY...
LCL MVFR/IFR CIGS BR ALONG NC COAST TIL 16Z. A FEW TSRA OFFSHORE NC 
COAST...MAINLY E OF THE AR ROUTES. ELSEWHERE VFR ACROSS THE ZDC 
AIRSPACE TODAY.

Surface Map


TRACON Thunderstorm Forecast


Vertical Wind Profiles